Time;durP1;ratioP1;P1;durP2;ratioP2;P2;SDS_P1;SDS_P2;PMS_P1;PMS_P2;Temp;Humidity;BMP_temperature;BMP_pressure;BME280_temperature;BME280_humidity;BME280_pressure;Samples;Min_cycle;Max_cycle;Signal;HPM_P1;HPM_P2
2023/06/08 00:00:41;;;;;;;10.85;9.73;;;16.00;70.60;;;;;;4806603;29;20035;-60
2023/06/08 00:03:07;;;;;;;13.40;11.32;;;15.90;72.20;;;;;;4806432;29;20445;-60
2023/06/08 00:05:43;;;;;;;11.85;9.52;;;15.90;74.70;;;;;;4806187;29;20027;-59
2023/06/08 00:08:09;;;;;;;13.43;9.90;;;15.90;71.60;;;;;;4806406;29;20096;-60
2023/06/08 00:10:34;;;;;;;10.68;9.18;;;15.80;72.90;;;;;;4806454;29;20434;-60
2023/06/08 00:13:00;;;;;;;9.80;8.88;;;15.80;66.40;;;;;;4806163;29;20074;-60
2023/06/08 00:15:27;;;;;;;12.20;9.25;;;15.60;64.80;;;;;;4806154;29;20042;-59
2023/06/08 00:17:52;;;;;;;11.27;9.93;;;15.50;64.80;;;;;;4806349;29;20135;-60
2023/06/08 00:20:18;;;;;;;10.50;9.48;;;15.40;68.20;;;;;;4806026;29;20372;-60
2023/06/08 00:22:47;;;;;;;19.90;11.07;;;15.30;70.70;;;;;;4805690;29;20387;-60
2023/06/08 00:25:13;;;;;;;11.98;10.75;;;15.20;75.40;;;;;;4805831;29;20051;-59
2023/06/08 00:27:39;;;;;;;11.63;10.52;;;15.10;77.90;;;;;;4806025;29;20079;-60
2023/06/08 00:30:05;;;;;;;11.45;9.80;;;15.10;79.80;;;;;;4805961;29;20027;-60
2023/06/08 00:32:31;;;;;;;17.50;9.57;;;15.00;78.90;;;;;;4805748;29;20060;-59
2023/06/08 00:34:57;;;;;;;16.13;10.77;;;14.80;78.30;;;;;;4805753;29;20031;-59
2023/06/08 00:37:23;;;;;;;14.25;10.52;;;14.70;76.70;;;;;;4805639;29;20042;-60
2023/06/08 00:39:48;;;;;;;10.98;9.88;;;14.60;78.20;;;;;;4805912;29;20070;-60
2023/06/08 00:42:14;;;;;;;11.45;9.88;;;14.60;83.00;;;;;;4805643;29;20304;-60
2023/06/08 00:44:39;;;;;;;10.50;9.48;;;14.60;87.90;;;;;;4805744;29;20459;-60
2023/06/08 00:47:05;;;;;;;12.95;10.57;;;14.60;85.40;;;;;;4805511;29;20034;-60
2023/06/08 00:49:32;;;;;;;13.32;10.95;;;14.60;84.20;;;;;;4805740;29;20063;-60
2023/06/08 00:52:00;;;;;;;11.82;10.45;;;14.60;85.00;;;;;;4805547;29;20031;-58
2023/06/08 00:54:30;;;;;;;12.63;11.38;;;14.60;87.80;;;;;;4819533;29;20042;-59
2023/06/08 00:57:00;;;;;;;10.82;9.73;;;14.60;88.20;;;;;;4805540;29;20031;-59
2023/06/08 00:59:29;;;;;;;11.40;10.13;;;14.70;92.10;;;;;;4805557;29;20526;-59
2023/06/08 01:01:57;;;;;;;10.77;9.68;;;14.80;91.90;;;;;;4805535;29;20090;-59
2023/06/08 01:04:23;;;;;;;13.10;11.05;;;14.90;91.90;;;;;;4805637;29;20050;-59
2023/06/08 01:06:53;;;;;;;11.48;10.10;;;14.90;90.70;;;;;;4805478;29;20026;-60
2023/06/08 01:09:43;;;;;;;10.18;9.15;;;14.90;91.40;;;;;;4805263;29;20075;-60
2023/06/08 01:12:21;;;;;;;11.00;9.93;;;15.00;90.50;;;;;;4805173;29;20065;-60
2023/06/08 01:14:59;;;;;;;13.55;10.98;;;15.10;89.60;;;;;;4805318;29;20062;-59
2023/06/08 01:17:32;;;;;;;11.15;10.07;;;15.10;89.80;;;;;;4805301;29;20037;-59
2023/06/08 01:20:07;;;;;;;11.68;10.57;;;15.10;82.80;;;;;;4805167;29;20035;-59
2023/06/08 01:22:56;;;;;;;12.48;11.18;;;14.90;78.30;;;;;;4805153;29;20031;-59
2023/06/08 01:25:28;;;;;;;16.80;10.85;;;14.80;82.10;;;;;;4804364;29;20506;-60
2023/06/08 01:28:12;;;;;;;15.23;10.13;;;14.70;84.10;;;;;;4804851;29;20092;-59
2023/06/08 01:30:38;;;;;;;;;;;14.60;86.20;;;;;;4805347;29;20125;-59
2023/06/08 01:33:04;;;;;;;12.73;11.02;;;14.60;88.00;;;;;;4804970;29;19909;-60
2023/06/08 01:35:30;;;;;;;12.68;11.18;;;14.50;89.10;;;;;;4804753;29;20031;-60
2023/06/08 01:38:02;;;;;;;14.80;11.23;;;14.50;90.80;;;;;;4804723;29;20026;-59
2023/06/08 01:40:34;;;;;;;15.07;12.30;;;14.50;91.90;;;;;;4804728;29;20033;-60
2023/06/08 01:43:02;;;;;;;13.05;11.52;;;14.40;91.80;;;;;;4804439;29;20037;-60
2023/06/08 01:45:32;;;;;;;13.63;12.23;;;14.40;92.40;;;;;;4804873;29;20057;-59
2023/06/08 01:48:04;;;;;;;15.43;12.07;;;14.40;91.90;;;;;;4804663;29;20066;-60
2023/06/08 01:50:32;;;;;;;12.40;11.00;;;14.30;92.80;;;;;;4804680;29;20059;-60
2023/06/08 01:52:58;;;;;;;15.63;11.75;;;14.30;92.60;;;;;;4804668;29;20084;-59
2023/06/08 01:55:24;;;;;;;16.90;12.18;;;14.20;92.90;;;;;;4804758;29;20038;-58
2023/06/08 01:57:50;;;;;;;15.82;11.70;;;14.20;93.10;;;;;;4804616;29;20440;-59
2023/06/08 02:00:18;;;;;;;18.45;11.88;;;14.20;94.40;;;;;;4804534;29;20122;-60
2023/06/08 02:02:44;;;;;;;14.80;13.13;;;14.20;94.40;;;;;;4804420;29;20058;-60
2023/06/08 02:05:11;;;;;;;13.65;12.13;;;14.10;94.50;;;;;;4804528;29;20059;-60
2023/06/08 02:07:38;;;;;;;20.77;12.55;;;14.10;94.10;;;;;;4804580;29;20433;-60
2023/06/08 02:10:06;;;;;;;14.30;11.48;;;14.10;94.60;;;;;;4804526;29;20368;-59
2023/06/08 02:12:32;;;;;;;13.77;12.32;;;14.10;94.60;;;;;;4804579;29;20031;-60
2023/06/08 02:14:58;;;;;;;14.57;12.95;;;14.20;95.30;;;;;;4804599;29;20117;-59
2023/06/08 02:17:27;;;;;;;13.82;12.43;;;14.20;96.20;;;;;;4804303;29;20122;-58
2023/06/08 02:19:54;;;;;;;15.90;13.77;;;14.30;96.50;;;;;;4804458;29;20035;-60
2023/06/08 02:22:20;;;;;;;20.02;13.70;;;14.40;96.50;;;;;;4804511;29;20023;-59
2023/06/08 02:24:47;;;;;;;17.08;14.52;;;14.50;97.50;;;;;;4804107;29;20448;-58
2023/06/08 02:27:14;;;;;;;17.45;13.85;;;14.50;96.90;;;;;;4803973;29;20091;-58
2023/06/08 02:29:40;;;;;;;18.75;14.27;;;14.60;96.70;;;;;;4804313;29;20503;-59
2023/06/08 02:32:06;;;;;;;17.80;13.63;;;14.70;96.30;;;;;;4803919;29;20034;-60
2023/06/08 02:34:32;;;;;;;19.75;14.30;;;14.70;96.10;;;;;;4804224;29;20065;-60
2023/06/08 02:36:58;;;;;;;18.98;14.80;;;14.70;96.50;;;;;;4804566;29;20062;-60
2023/06/08 02:39:24;;;;;;;15.68;13.65;;;14.70;96.70;;;;;;4807266;29;20038;-59
2023/06/08 02:41:49;;;;;;;17.27;15.07;;;14.70;96.10;;;;;;4807328;29;20026;-60
2023/06/08 02:44:15;;;;;;;16.30;14.52;;;14.70;96.40;;;;;;4807491;29;20117;-60
2023/06/08 02:46:42;;;;;;;17.85;14.18;;;14.70;95.30;;;;;;4807610;29;20039;-60
2023/06/08 02:49:07;;;;;;;17.17;15.35;;;14.70;95.50;;;;;;4807677;29;20121;-60
2023/06/08 02:51:33;;;;;;;16.70;14.55;;;14.70;95.50;;;;;;4807845;29;20168;-59
2023/06/08 02:53:59;;;;;;;16.83;14.05;;;14.70;94.70;;;;;;4807705;29;20031;-60
2023/06/08 02:56:25;;;;;;;15.98;13.50;;;14.60;94.20;;;;;;4807784;29;20034;-60
2023/06/08 02:58:51;;;;;;;16.67;12.65;;;14.50;92.40;;;;;;4821587;29;20471;-60
2023/06/08 03:01:17;;;;;;;17.92;13.30;;;14.40;91.60;;;;;;4807242;29;20175;-60
2023/06/08 03:03:44;;;;;;;14.88;13.38;;;14.30;92.90;;;;;;4807789;29;20159;-59
2023/06/08 03:06:12;;;;;;;14.52;13.13;;;14.30;93.50;;;;;;4807542;29;20038;-57
2023/06/08 03:08:41;;;;;;;16.92;14.07;;;14.20;92.60;;;;;;4807564;29;20479;-59
2023/06/08 03:11:06;;;;;;;16.83;14.35;;;14.10;93.20;;;;;;4807496;29;20083;-60
2023/06/08 03:13:33;;;;;;;16.15;14.23;;;14.00;94.90;;;;;;4807649;29;20515;-60
2023/06/08 03:15:59;;;;;;;17.10;14.45;;;14.00;96.30;;;;;;4806958;29;20072;-60
2023/06/08 03:18:24;;;;;;;19.45;15.25;;;14.00;96.00;;;;;;4807345;29;20118;-59
2023/06/08 03:20:53;;;;;;;19.48;15.00;;;14.10;96.30;;;;;;4807272;29;20140;-61
2023/06/08 03:23:20;;;;;;;20.70;16.02;;;14.00;96.80;;;;;;4807255;29;20114;-60
2023/06/08 03:25:51;;;;;;;17.42;15.52;;;14.10;96.40;;;;;;4807160;29;20536;-59
2023/06/08 03:28:18;;;;;;;18.50;15.10;;;14.10;95.40;;;;;;4806944;29;20380;-60
2023/06/08 03:30:44;;;;;;;16.75;14.98;;;14.10;94.30;;;;;;4820534;29;20561;-59
2023/06/08 03:33:10;;;;;;;16.55;14.65;;;14.10;93.50;;;;;;4806347;29;20099;-59
2023/06/08 03:35:36;;;;;;;15.27;13.68;;;14.00;93.90;;;;;;4806605;29;20031;-60
2023/06/08 03:38:02;;;;;;;15.00;13.43;;;14.10;93.70;;;;;;4806651;29;20103;-59
2023/06/08 03:40:28;;;;;;;16.05;13.82;;;14.20;93.30;;;;;;4806502;29;20035;-60
2023/06/08 03:42:53;;;;;;;19.00;15.25;;;14.20;94.10;;;;;;4806893;29;20038;-60
2023/06/08 03:45:19;;;;;;;21.33;15.57;;;14.20;94.80;;;;;;4806703;29;20468;-60
2023/06/08 03:47:45;;;;;;;23.40;17.83;;;14.30;94.30;;;;;;4806560;29;20035;-59
2023/06/08 03:50:14;;;;;;;21.63;19.30;;;14.40;96.80;;;;;;4805970;29;20037;-60
2023/06/08 03:52:40;;;;;;;23.90;20.67;;;14.60;98.00;;;;;;4806758;29;20058;-60
2023/06/08 03:55:11;;;;;;;24.70;19.92;;;14.70;98.70;;;;;;4806621;29;20581;-61
2023/06/08 03:57:36;;;;;;;25.50;19.92;;;14.80;97.80;;;;;;4806617;29;20027;-59
2023/06/08 04:00:06;;;;;;;21.25;18.67;;;14.80;97.60;;;;;;4806489;29;20031;-60
2023/06/08 04:02:32;;;;;;;21.75;18.45;;;14.90;97.20;;;;;;4806598;29;20031;-60
2023/06/08 04:04:59;;;;;;;22.27;18.42;;;14.90;96.60;;;;;;4806514;29;20109;-60
2023/06/08 04:07:24;;;;;;;23.33;18.05;;;14.90;96.60;;;;;;4806589;29;20353;-59
2023/06/08 04:09:50;;;;;;;20.23;18.05;;;14.90;95.50;;;;;;4806737;29;20052;-59
2023/06/08 04:12:16;;;;;;;24.52;19.08;;;14.90;95.90;;;;;;4806459;29;20039;-60
2023/06/08 04:14:41;;;;;;;20.25;18.08;;;15.00;96.30;;;;;;4820053;29;20121;-61
2023/06/08 04:17:20;;;;;;;21.08;18.83;;;15.00;95.00;;;;;;4805698;29;20083;-60
2023/06/08 04:19:45;;;;;;;21.42;18.50;;;15.00;95.70;;;;;;4806266;29;20519;-59
2023/06/08 04:22:11;;;;;;;20.35;17.15;;;15.00;94.90;;;;;;4806104;29;20034;-60
2023/06/08 04:24:38;;;;;;;20.65;17.67;;;15.10;95.00;;;;;;4806088;29;20078;-59
2023/06/08 04:27:05;;;;;;;21.77;17.77;;;15.10;94.90;;;;;;4806011;29;20100;-60
2023/06/08 04:29:31;;;;;;;20.65;18.52;;;15.20;94.60;;;;;;4806148;29;20023;-60
2023/06/08 04:31:56;;;;;;;20.30;17.98;;;15.20;93.90;;;;;;4805637;29;20049;-60
2023/06/08 04:34:22;;;;;;;20.83;18.02;;;15.20;93.60;;;;;;4806067;29;20038;-59
2023/06/08 04:36:48;;;;;;;23.85;18.60;;;15.20;94.20;;;;;;4805577;29;20045;-60
2023/06/08 04:39:14;;;;;;;20.58;17.73;;;15.30;95.20;;;;;;4805708;29;20035;-59
2023/06/08 04:41:40;;;;;;;22.13;18.85;;;15.40;94.70;;;;;;4805694;29;20031;-59
2023/06/08 04:44:08;;;;;;;21.05;18.83;;;15.50;94.20;;;;;;4805646;29;20083;-59
2023/06/08 04:46:37;;;;;;;21.55;18.52;;;15.50;94.60;;;;;;4805537;29;20081;-60
2023/06/08 04:49:03;;;;;;;23.38;18.63;;;15.50;95.00;;;;;;4805647;29;20079;-60
2023/06/08 04:51:32;;;;;;;25.73;18.25;;;15.70;94.10;;;;;;4805528;29;20046;-60
2023/06/08 04:54:00;;;;;;;20.83;17.88;;;15.70;93.60;;;;;;4808057;29;20043;-60
2023/06/08 04:56:29;;;;;;;22.48;18.40;;;15.80;94.10;;;;;;4823845;29;20121;-60
2023/06/08 04:58:55;;;;;;;22.90;17.95;;;15.80;92.80;;;;;;4823741;29;20029;-60
2023/06/08 05:01:21;;;;;;;24.17;18.63;;;15.90;92.00;;;;;;4823792;29;20091;-59
2023/06/08 05:03:46;;;;;;;25.92;19.30;;;15.90;91.20;;;;;;4823837;29;20457;-60
2023/06/08 05:06:12;;;;;;;21.08;17.52;;;16.00;92.10;;;;;;4817850;29;20048;-60
2023/06/08 05:08:38;;;;;;;20.35;18.02;;;16.10;91.20;;;;;;4804822;29;20027;-60
2023/06/08 05:11:04;;;;;;;20.10;17.98;;;16.10;90.20;;;;;;4805095;29;20031;-60
2023/06/08 05:13:30;;;;;;;22.05;18.33;;;16.20;89.30;;;;;;4805217;29;20039;-59
2023/06/08 05:15:58;;;;;;;20.40;18.30;;;16.30;85.30;;;;;;4804772;29;20125;-60
2023/06/08 05:18:28;;;;;;;22.20;19.80;;;16.30;87.80;;;;;;4805008;29;20031;-60
2023/06/08 05:20:53;;;;;;;21.77;19.55;;;16.30;88.00;;;;;;4803919;29;20054;-60
2023/06/08 05:23:19;;;;;;;22.67;18.90;;;16.30;85.50;;;;;;4804041;29;20061;-60
2023/06/08 05:25:45;;;;;;;21.27;18.95;;;16.30;86.00;;;;;;4803760;29;20054;-59
2023/06/08 05:28:11;;;;;;;19.85;17.80;;;16.40;87.30;;;;;;4803685;29;20033;-60
2023/06/08 05:30:36;;;;;;;25.50;20.13;;;16.30;86.80;;;;;;4803887;29;20429;-60
2023/06/08 05:33:02;;;;;;;24.27;19.55;;;16.30;86.70;;;;;;4803458;29;20195;-61
2023/06/08 05:35:29;;;;;;;21.38;19.02;;;16.30;85.90;;;;;;4803669;29;20539;-60
2023/06/08 05:37:55;;;;;;;21.88;17.65;;;16.30;89.90;;;;;;4803455;29;20034;-60
2023/06/08 05:40:21;;;;;;;24.08;19.00;;;16.40;88.80;;;;;;4803555;29;20145;-60
2023/06/08 05:42:46;;;;;;;22.52;18.30;;;16.40;84.30;;;;;;4803541;29;20027;-60
2023/06/08 05:45:12;;;;;;;20.75;18.63;;;16.60;86.40;;;;;;4803456;29;20128;-59
2023/06/08 05:47:38;;;;;;;22.83;17.98;;;16.50;80.60;;;;;;4803504;29;20031;-60
2023/06/08 05:50:05;;;;;;;20.92;18.38;;;16.50;84.30;;;;;;4803242;29;20058;-60
2023/06/08 05:52:31;;;;;;;21.10;18.98;;;16.50;85.90;;;;;;4803958;29;20400;-60
2023/06/08 05:54:57;;;;;;;19.92;17.60;;;16.50;86.00;;;;;;4804046;29;20062;-60
2023/06/08 05:57:23;;;;;;;26.35;17.98;;;16.60;83.80;;;;;;4818231;29;20531;-59
2023/06/08 05:59:48;;;;;;;20.15;18.00;;;16.60;81.70;;;;;;4803035;29;20179;-60
2023/06/08 06:02:14;;;;;;;20.65;16.92;;;16.60;80.00;;;;;;4803406;29;20062;-60
2023/06/08 06:04:40;;;;;;;18.50;16.55;;;16.60;80.30;;;;;;4802906;29;20034;-61
2023/06/08 06:07:06;;;;;;;19.10;16.83;;;16.70;79.00;;;;;;4804087;29;20030;-60
2023/06/08 06:09:32;;;;;;;19.90;15.23;;;16.70;75.40;;;;;;4804610;29;20367;-59
2023/06/08 06:11:58;;;;;;;19.38;16.42;;;16.90;72.50;;;;;;4803799;29;20042;-60
2023/06/08 06:14:24;;;;;;;16.65;15.05;;;16.90;71.70;;;;;;4804615;29;20046;-60
2023/06/08 06:16:49;;;;;;;19.80;15.75;;;16.90;71.80;;;;;;4804719;29;20027;-60
2023/06/08 06:19:15;;;;;;;16.38;14.68;;;16.90;65.70;;;;;;4804362;29;20035;-60
2023/06/08 06:21:40;;;;;;;14.80;13.35;;;17.00;66.40;;;;;;4803710;29;20051;-60
2023/06/08 06:24:06;;;;;;;17.98;14.75;;;17.10;57.90;;;;;;4803594;29;20080;-61
2023/06/08 06:26:32;;;;;;;21.63;14.25;;;17.20;56.70;;;;;;4803933;29;20586;-60
2023/06/08 06:28:57;;;;;;;17.48;12.93;;;17.30;48.10;;;;;;4803857;29;20118;-59
2023/06/08 06:31:23;;;;;;;15.52;12.88;;;17.40;49.00;;;;;;4804111;29;20379;-60
2023/06/08 06:33:49;;;;;;;15.40;13.80;;;17.60;47.20;;;;;;4804116;29;20039;-60
2023/06/08 06:36:15;;;;;;;18.98;13.43;;;17.60;43.40;;;;;;4804112;29;20038;-60
2023/06/08 06:38:41;;;;;;;17.95;14.02;;;17.60;47.60;;;;;;4804038;29;20038;-60
2023/06/08 06:41:06;;;;;;;14.32;12.82;;;17.70;42.90;;;;;;4803942;29;20035;-59
2023/06/08 06:43:32;;;;;;;14.88;13.45;;;18.00;39.90;;;;;;4803992;29;20027;-60
2023/06/08 06:45:58;;;;;;;18.20;12.63;;;18.10;28.00;;;;;;4804061;29;20419;-60
2023/06/08 06:48:24;;;;;;;16.83;12.88;;;18.20;27.70;;;;;;4803689;29;20118;-59
2023/06/08 06:50:50;;;;;;;14.07;12.65;;;18.20;17.40;;;;;;4803692;29;20119;-60
2023/06/08 06:53:16;;;;;;;15.02;13.10;;;18.30;17.10;;;;;;4803767;29;20052;-58
2023/06/08 06:55:41;;;;;;;16.50;13.52;;;18.30;20.70;;;;;;4804162;29;20030;-60
2023/06/08 06:58:08;;;;;;;17.17;13.68;;;18.30;11.00;;;;;;4803983;29;20031;-59
2023/06/08 07:00:37;;;;;;;14.48;13.05;;;18.30;12.50;;;;;;4803974;29;20034;-59
2023/06/08 07:03:04;;;;;;;14.32;12.93;;;18.30;20.20;;;;;;4803917;29;20035;-60
2023/06/08 07:05:30;;;;;;;22.05;13.50;;;18.30;14.80;;;;;;4803496;29;20515;-60
2023/06/08 07:07:56;;;;;;;15.65;12.80;;;18.30;12.30;;;;;;4803115;29;20030;-61
2023/06/08 07:10:22;;;;;;;15.13;13.52;;;18.50;15.70;;;;;;4803236;29;20057;-61
2023/06/08 07:12:47;;;;;;;15.77;12.55;;;18.50;7.70;;;;;;4803915;29;20530;-61
2023/06/08 07:15:13;;;;;;;14.48;12.98;;;18.70;6.20;;;;;;4803830;29;20081;-61
2023/06/08 07:17:39;;;;;;;14.00;12.60;;;18.90;3.20;;;;;;4803716;29;20047;-61
2023/06/08 07:20:06;;;;;;;16.67;12.55;;;18.80;1.00;;;;;;4802558;29;20460;-61
2023/06/08 07:22:31;;;;;;;15.57;12.30;;;18.90;1.00;;;;;;4803290;29;20105;-61
2023/06/08 07:24:58;;;;;;;13.27;11.88;;;19.00;1.00;;;;;;4806066;29;20131;-60
2023/06/08 07:27:23;;;;;;;15.10;12.98;;;18.90;1.00;;;;;;4794027;29;20023;-60
2023/06/08 07:29:49;;;;;;;13.88;12.43;;;19.10;1.00;;;;;;4805142;29;20027;-61
2023/06/08 07:32:15;;;;;;;15.68;13.18;;;19.10;1.00;;;;;;4795956;29;20083;-61
2023/06/08 07:34:41;;;;;;;17.17;13.02;;;19.10;1.00;;;;;;4787373;29;20062;-60
2023/06/08 07:37:06;;;;;;;12.43;11.20;;;19.20;1.00;;;;;;4794936;29;20055;-60
2023/06/08 07:39:32;;;;;;;19.90;11.82;;;19.30;1.00;;;;;;4787945;29;20084;-61
2023/06/08 07:41:58;;;;;;;12.82;11.52;;;19.20;1.00;;;;;;4801746;29;20038;-60
2023/06/08 07:44:23;;;;;;;17.50;12.77;;;19.20;1.00;;;;;;4797653;29;20480;-60
2023/06/08 07:46:49;;;;;;;13.57;12.18;;;19.10;1.00;;;;;;4801702;29;20054;-60
2023/06/08 07:49:15;;;;;;;15.52;11.75;;;19.00;1.00;;;;;;4806765;29;20043;-60
2023/06/08 07:51:40;;;;;;;13.32;11.98;;;19.20;1.00;;;;;;4806905;29;20046;-60
2023/06/08 07:54:06;;;;;;;15.85;12.35;;;19.40;1.00;;;;;;4806646;29;20039;-60
2023/06/08 07:56:32;;;;;;;16.48;11.88;;;19.60;1.00;;;;;;4805836;29;20030;-60
2023/06/08 07:58:57;;;;;;;13.43;12.07;;;19.70;1.00;;;;;;4805702;29;20050;-60
2023/06/08 08:01:23;;;;;;;13.95;12.25;;;19.80;1.00;;;;;;4806085;29;20069;-60
2023/06/08 08:03:49;;;;;;;12.70;11.43;;;19.90;1.00;;;;;;4799741;29;20395;-61
2023/06/08 08:06:14;;;;;;;11.65;10.32;;;20.20;1.00;;;;;;4797763;29;20103;-60
2023/06/08 08:08:40;;;;;;;14.60;10.45;;;20.40;1.00;;;;;;4802372;29;20034;-60
2023/06/08 08:11:06;;;;;;;12.27;11.07;;;20.50;1.00;;;;;;4793291;29;20062;-61
2023/06/08 08:13:31;;;;;;;12.57;10.00;;;20.60;1.00;;;;;;4805093;29;20631;-60
2023/06/08 08:15:57;;;;;;;12.90;10.77;;;20.70;99.90;;;;;;4804133;29;20084;-60
2023/06/08 08:18:23;;;;;;;13.00;10.43;;;20.70;99.90;;;;;;4788382;29;20027;-60
2023/06/08 08:20:48;;;;;;;14.02;10.65;;;20.80;99.90;;;;;;4790126;29;20034;-60
2023/06/08 08:23:14;;;;;;;15.00;11.27;;;21.00;99.90;;;;;;4788001;29;20474;-60
2023/06/08 08:25:40;;;;;;;15.25;10.82;;;20.80;99.90;;;;;;4789110;29;20085;-60
2023/06/08 08:28:07;;;;;;;13.32;11.95;;;21.00;99.90;;;;;;4804037;29;20107;-60
2023/06/08 08:30:33;;;;;;;13.57;11.45;;;21.40;99.90;;;;;;4804777;29;20050;-60
2023/06/08 08:32:58;;;;;;;11.38;10.27;;;21.50;60.30;;;;;;4806755;29;20045;-58
2023/06/08 08:35:28;;;;;;;12.52;10.55;;;21.80;1.00;;;;;;4816388;29;20365;-60
2023/06/08 08:37:55;;;;;;;14.27;11.25;;;21.90;1.00;;;;;;4805218;29;20104;-60
2023/06/08 08:40:22;;;;;;;12.23;11.02;;;22.00;44.40;;;;;;4818189;29;20042;-60
2023/06/08 08:43:01;;;;;;;12.65;10.27;;;22.10;99.90;;;;;;4823284;29;20022;-61
2023/06/08 08:45:31;;;;;;;11.45;10.05;;;22.40;1.00;;;;;;4823497;29;20088;-61
2023/06/08 08:48:01;;;;;;;10.02;9.02;;;22.60;99.90;;;;;;4823397;29;20037;-60
2023/06/08 08:50:33;;;;;;;8.15;7.18;;;22.50;99.90;;;;;;4818815;29;20491;-60
2023/06/08 08:53:00;;;;;;;8.52;7.43;;;22.70;99.90;;;;;;4800087;29;20046;-60
2023/06/08 08:55:27;;;;;;;8.70;7.18;;;23.00;99.90;;;;;;4790889;29;20062;-60
2023/06/08 08:57:58;;;;;;;6.97;6.28;;;23.00;99.90;;;;;;4802020;29;20118;-57
2023/06/08 09:00:25;;;;;;;8.40;7.47;;;22.80;1.00;;;;;;4787509;29;20047;-60
2023/06/08 09:02:51;;;;;;;11.82;7.65;;;22.80;6.80;;;;;;4820885;29;20042;-60
2023/06/08 09:05:17;;;;;;;7.75;7.05;;;22.90;99.90;;;;;;4823615;29;20015;-61
2023/06/08 09:07:43;;;;;;;8.85;7.50;;;23.10;99.90;;;;;;4823371;29;20348;-60
2023/06/08 09:10:19;;;;;;;11.55;7.80;;;23.20;1.00;;;;;;4819872;29;20038;-61
2023/06/08 09:12:47;;;;;;;8.48;7.65;;;23.30;27.50;;;;;;4805505;29;20038;-60
2023/06/08 09:15:24;;;;;;;8.85;7.47;;;23.40;99.90;;;;;;4805302;29;20031;-61
2023/06/08 09:17:51;;;;;;;18.02;7.65;;;23.70;99.90;;;;;;4805386;29;20393;-61
2023/06/08 09:20:29;;;;;;;9.55;8.55;;;23.50;99.90;;;;;;4805220;29;20117;-61
2023/06/08 09:22:56;;;;;;;12.30;8.57;;;23.40;99.90;;;;;;4805175;29;20035;-61
2023/06/08 09:25:36;;;;;;;11.65;8.15;;;23.60;1.00;;;;;;4791487;29;20488;-60
2023/06/08 09:28:24;;;;;;;10.50;8.77;;;23.80;99.90;;;;;;4803927;29;20491;-60
2023/06/08 09:30:50;;;;;;;11.90;9.38;;;23.60;99.90;;;;;;4805411;29;20403;-60
2023/06/08 09:33:20;;;;;;;9.77;8.50;;;23.90;99.90;;;;;;4804769;29;20035;-61
2023/06/08 09:35:47;;;;;;;11.20;8.52;;;23.80;1.00;;;;;;4805222;29;20076;-60
2023/06/08 09:38:18;;;;;;;9.52;8.63;;;23.80;1.00;;;;;;4804812;29;20035;-60
2023/06/08 09:40:45;;;;;;;11.65;8.50;;;23.80;1.00;;;;;;4805084;29;20038;-61
2023/06/08 09:43:11;;;;;;;9.80;8.73;;;23.70;99.90;;;;;;4804952;29;20058;-60
2023/06/08 09:45:47;;;;;;;9.85;8.68;;;23.50;1.00;;;;;;4804779;29;20070;-60
2023/06/08 09:48:13;;;;;;;7.97;7.07;;;23.60;99.90;;;;;;4789357;29;20118;-61
2023/06/08 09:50:39;;;;;;;10.05;8.50;;;23.90;99.90;;;;;;4786865;29;20043;-60
2023/06/08 09:53:08;;;;;;;8.88;6.72;;;23.80;99.90;;;;;;4802508;29;20099;-57
2023/06/08 09:55:35;;;;;;;8.55;7.65;;;24.30;99.90;;;;;;4800574;29;20023;-60
2023/06/08 09:58:02;;;;;;;8.40;7.50;;;24.30;1.00;;;;;;4793992;29;20027;-60
2023/06/08 10:00:29;;;;;;;12.05;7.55;;;24.30;1.00;;;;;;4786663;29;20068;-61
2023/06/08 10:03:12;;;;;;;11.48;7.75;;;24.30;1.00;;;;;;4800887;29;20099;-61
2023/06/08 10:05:43;;;;;;;9.38;8.00;;;24.40;98.80;;;;;;4804677;29;20483;-60
2023/06/08 10:08:12;;;;;;;10.07;7.15;;;24.60;56.90;;;;;;4804433;29;20043;-62
2023/06/08 10:10:38;;;;;;;7.68;6.93;;;24.70;1.00;;;;;;4804080;29;20431;-60
2023/06/08 10:13:05;;;;;;;7.93;6.95;;;24.60;1.00;;;;;;4804444;29;20447;-60
2023/06/08 10:15:32;;;;;;;8.48;7.07;;;24.30;1.00;;;;;;4804481;29;20451;-59
2023/06/08 10:17:59;;;;;;;7.85;6.85;;;24.00;6.70;;;;;;4803845;29;20053;-59
2023/06/08 10:20:27;;;;;;;7.78;7.07;;;23.90;89.10;;;;;;4804429;29;20034;-59
2023/06/08 10:22:53;;;;;;;7.80;7.00;;;24.00;99.90;;;;;;4804192;29;20035;-60
2023/06/08 10:25:20;;;;;;;7.28;6.57;;;23.70;72.20;;;;;;4804319;29;20491;-60
2023/06/08 10:27:50;;;;;;;12.48;7.13;;;23.60;92.80;;;;;;4804084;29;20066;-60
2023/06/08 10:30:30;;;;;;;6.78;5.82;;;23.60;99.90;;;;;;4804143;29;20046;-60
2023/06/08 10:33:20;;;;;;;8.98;6.75;;;23.80;99.90;;;;;;4801140;29;20111;-61
2023/06/08 10:36:06;;;;;;;10.07;7.03;;;23.90;99.90;;;;;;4793519;29;20058;-60
2023/06/08 10:38:36;;;;;;;9.02;6.95;;;24.20;90.00;;;;;;4793434;29;20384;-61
2023/06/08 10:41:02;;;;;;;8.30;6.75;;;24.20;92.70;;;;;;4793124;29;20031;-60
2023/06/08 10:43:28;;;;;;;7.70;6.63;;;24.40;1.00;;;;;;4793326;29;20221;-60
2023/06/08 10:45:55;;;;;;;13.05;6.43;;;24.60;77.20;;;;;;4793900;29;20495;-60
2023/06/08 10:48:21;;;;;;;7.20;6.50;;;24.50;1.00;;;;;;4793728;29;20035;-60
2023/06/08 10:50:53;;;;;;;7.10;6.35;;;24.70;1.00;;;;;;4793466;29;20084;-60
2023/06/08 10:53:22;;;;;;;9.10;5.85;;;24.60;1.00;;;;;;4792969;29;20066;-60
2023/06/08 10:55:49;;;;;;;13.25;5.75;;;24.60;1.00;;;;;;4806763;29;20046;-61
2023/06/08 10:58:17;;;;;;;9.80;5.65;;;24.60;99.90;;;;;;4794468;29;20042;-61
2023/06/08 11:00:43;;;;;;;8.63;5.97;;;24.80;99.90;;;;;;4797261;29;20046;-60
2023/06/08 11:03:11;;;;;;;7.20;6.50;;;24.60;99.90;;;;;;4796271;29;20096;-61
2023/06/08 11:05:39;;;;;;;12.00;6.75;;;24.60;99.90;;;;;;4796870;29;20034;-60
2023/06/08 11:08:07;;;;;;;7.18;5.63;;;24.40;99.90;;;;;;4796869;29;20018;-60
2023/06/08 11:10:34;;;;;;;7.43;6.00;;;24.40;99.90;;;;;;4795940;29;20026;-60
2023/06/08 11:13:05;;;;;;;6.43;5.80;;;24.50;99.90;;;;;;4796708;29;20031;-61
2023/06/08 11:15:31;;;;;;;7.57;5.93;;;24.40;99.90;;;;;;4795423;29;20050;-60
2023/06/08 11:17:58;;;;;;;7.60;6.68;;;24.50;99.90;;;;;;4795560;29;20035;-61
2023/06/08 11:20:24;;;;;;;7.07;6.05;;;24.80;99.90;;;;;;4796743;29;20037;-60
2023/06/08 11:22:50;;;;;;;14.68;7.45;;;24.60;99.90;;;;;;4795581;29;20038;-60
2023/06/08 11:25:20;;;;;;;6.63;6.00;;;24.50;99.90;;;;;;4796461;29;20058;-61
2023/06/08 11:27:46;;;;;;;8.18;6.30;;;25.00;99.90;;;;;;4796588;29;20427;-60
2023/06/08 11:30:19;;;;;;;7.53;5.75;;;25.40;99.90;;;;;;4796019;29;20127;-60
2023/06/08 11:32:47;;;;;;;7.70;6.63;;;25.70;1.00;;;;;;4796841;29;20031;-60
2023/06/08 11:35:13;;;;;;;7.93;5.97;;;26.10;1.00;;;;;;4796152;29;20118;-60
2023/06/08 11:37:41;;;;;;;5.78;5.28;;;26.60;1.00;;;;;;4795064;29;20039;-60
2023/06/08 11:40:14;;;;;;;10.05;6.45;;;26.70;99.90;;;;;;4795199;29;20109;-61
2023/06/08 11:42:40;;;;;;;8.93;5.60;;;27.30;99.90;;;;;;4794833;29;20491;-60
2023/06/08 11:45:10;;;;;;;8.20;5.60;;;27.50;99.90;;;;;;4794766;29;20046;-60
2023/06/08 11:47:36;;;;;;;6.90;5.28;;;27.70;99.90;;;;;;4794972;29;20055;-60
2023/06/08 11:50:03;;;;;;;5.82;5.18;;;27.40;99.90;;;;;;4792450;29;20043;-60
2023/06/08 11:52:33;;;;;;;8.10;4.68;;;27.40;99.90;;;;;;4793405;29;20685;-60
2023/06/08 11:55:03;;;;;;;5.68;5.13;;;27.10;99.90;;;;;;4793959;29;20499;-60
2023/06/08 11:57:41;;;;;;;9.65;5.47;;;27.20;99.90;;;;;;4793869;29;20049;-61
2023/06/08 12:00:16;;;;;;;4.82;4.43;;;27.30;99.90;;;;;;4794675;29;20057;-60
2023/06/08 12:02:45;;;;;;;4.82;4.30;;;27.50;99.90;;;;;;4795219;29;20031;-60
2023/06/08 12:05:16;;;;;;;7.07;3.40;;;27.80;99.90;;;;;;4795804;29;20050;-60
2023/06/08 12:07:57;;;;;;;5.53;3.35;;;27.60;61.70;;;;;;4795781;29;20055;-60
2023/06/08 12:10:36;;;;;;;8.75;3.78;;;27.90;53.40;;;;;;4794962;29;20114;-61
2023/06/08 12:13:11;;;;;;;6.40;3.50;;;28.20;1.00;;;;;;4795465;29;20095;-60
2023/06/08 12:15:40;;;;;;;4.22;3.70;;;28.30;1.00;;;;;;4795384;29;20038;-61
2023/06/08 12:18:06;;;;;;;7.07;3.95;;;28.20;1.00;;;;;;4795587;29;20609;-61
2023/06/08 12:20:36;;;;;;;6.53;3.33;;;27.80;1.00;;;;;;4795730;29;20054;-60
2023/06/08 12:23:02;;;;;;;6.50;3.75;;;27.50;1.00;;;;;;4795518;29;20039;-60
2023/06/08 12:25:29;;;;;;;4.22;3.83;;;27.40;1.00;;;;;;4795507;29;20399;-61
2023/06/08 12:27:55;;;;;;;7.30;4.13;;;27.20;1.00;;;;;;4795482;29;20117;-60
2023/06/08 12:30:23;;;;;;;5.70;4.15;;;27.70;1.00;;;;;;4795962;29;20506;-60
2023/06/08 12:32:52;;;;;;;5.35;4.63;;;27.70;1.00;;;;;;4795592;29;20117;-60
2023/06/08 12:35:18;;;;;;;4.93;3.95;;;27.90;1.00;;;;;;4795592;29;20057;-61
2023/06/08 12:37:48;;;;;;;10.40;4.03;;;28.20;1.00;;;;;;4795250;29;20159;-61